Time;durP1;ratioP1;P1;durP2;ratioP2;P2;SDS_P1;SDS_P2;PMS_P1;PMS_P2;Temp;Humidity;BMP_temperature;BMP_pressure;BME280_temperature;BME280_humidity;BME280_pressure;Samples;Min_cycle;Max_cycle;Signal;HPM_P1;HPM_P2
2021/04/16 00:01:28;;;;;;;6.53;2.40;;;;;;;3.71;99.74;98896.63;5026434;28;20671;-70
2021/04/16 00:03:54;;;;;;;3.67;2.43;;;;;;;3.64;100.00;98891.03;5028905;28;20249;-69
2021/04/16 00:06:21;;;;;;;3.60;2.50;;;;;;;3.68;100.00;98887.16;5027735;28;20242;-70
2021/04/16 00:08:48;;;;;;;5.67;2.60;;;;;;;3.62;99.86;98885.06;5029514;28;20207;-70
2021/04/16 00:11:17;;;;;;;3.93;2.27;;;;;;;3.71;99.91;98883.41;5031601;28;20206;-71
2021/04/16 00:13:45;;;;;;;7.37;2.37;;;;;;;3.67;99.18;98885.47;5023606;28;20684;-69
2021/04/16 00:16:14;;;;;;;5.10;2.67;;;;;;;3.64;99.79;98882.28;5029555;28;20236;-68
2021/04/16 00:18:41;;;;;;;5.20;2.90;;;;;;;3.54;100.00;98870.88;5025840;28;20674;-69
2021/04/16 00:21:08;;;;;;;6.63;2.30;;;;;;;3.54;100.00;98866.44;5027920;28;20209;-69
2021/04/16 00:23:35;;;;;;;3.80;2.47;;;;;;;3.48;100.00;98868.78;5031476;28;20218;-69
2021/04/16 00:26:02;;;;;;;3.27;2.30;;;;;;;3.47;100.00;98872.38;5029102;28;20768;-70
2021/04/16 00:28:29;;;;;;;4.40;2.50;;;;;;;3.53;100.00;98872.69;5029691;28;20210;-69
2021/04/16 00:31:00;;;;;;;4.63;2.30;;;;;;;3.47;100.00;98862.69;5028997;28;20206;-70
2021/04/16 00:33:28;;;;;;;6.47;2.83;;;;;;;3.50;100.00;98869.50;5027007;28;20236;-70
2021/04/16 00:35:54;;;;;;;4.67;2.63;;;;;;;3.45;100.00;98856.69;5030690;28;20234;-69
2021/04/16 00:38:22;;;;;;;5.40;2.77;;;;;;;3.49;100.00;98860.72;5029673;28;20203;-69
2021/04/16 00:40:53;;;;;;;3.33;2.03;;;;;;;3.49;99.86;98855.44;5022631;28;20211;-70
2021/04/16 00:43:22;;;;;;;3.97;2.13;;;;;;;3.43;100.00;98850.72;5027612;28;20254;-70
2021/04/16 00:45:49;;;;;;;4.77;2.43;;;;;;;3.34;100.00;98855.97;5019598;28;20224;-70
2021/04/16 00:48:29;;;;;;;4.63;2.50;;;;;;;3.34;100.00;98851.53;5031389;28;20206;-70
2021/04/16 00:50:58;;;;;;;4.60;2.43;;;;;;;3.31;100.00;98850.97;5027314;28;20274;-70
2021/04/16 00:53:25;;;;;;;7.03;2.20;;;;;;;3.34;100.00;98858.59;5022822;28;20212;-70
2021/04/16 00:55:53;;;;;;;4.40;2.20;;;;;;;3.31;100.00;98848.34;5025462;28;20695;-69
2021/04/16 00:58:22;;;;;;;4.13;2.60;;;;;;;3.14;100.00;98843.69;5022307;28;20222;-71
2021/04/16 01:00:52;;;;;;;4.53;2.50;;;;;;;3.31;100.00;98845.69;5030466;28;20248;-69
2021/04/16 01:03:21;;;;;;;3.77;2.30;;;;;;;3.24;100.00;98837.47;5022771;28;20234;-70
2021/04/16 01:05:48;;;;;;;5.67;2.70;;;;;;;3.14;100.00;98844.53;5023512;28;20223;-70
2021/04/16 01:08:15;;;;;;;5.37;2.20;;;;;;;3.20;100.00;98844.00;5022889;28;20214;-69
2021/04/16 01:10:42;;;;;;;6.73;2.33;;;;;;;3.26;100.00;98847.91;5030373;28;20210;-69
2021/04/16 01:13:09;;;;;;;4.07;2.20;;;;;;;3.26;100.00;98840.81;5031120;28;20207;-69
2021/04/16 01:15:39;;;;;;;4.27;2.50;;;;;;;3.19;100.00;98844.97;5022717;28;20230;-70
2021/04/16 01:18:10;;;;;;;5.37;2.50;;;;;;;3.15;100.00;98840.91;5026929;28;20233;-70
2021/04/16 01:20:39;;;;;;;3.73;2.30;;;;;;;3.31;100.00;98841.22;5028703;28;20221;-69
2021/04/16 01:23:10;;;;;;;4.23;2.40;;;;;;;3.30;100.00;98836.13;5026059;28;20253;-70
2021/04/16 01:25:39;;;;;;;2.87;2.00;;;;;;;3.22;100.00;98839.44;5029464;28;20242;-69
2021/04/16 01:28:06;;;;;;;4.30;2.47;;;;;;;3.25;100.00;98838.34;5029037;28;20213;-69
2021/04/16 01:30:33;;;;;;;3.63;2.00;;;;;;;3.02;100.00;98842.13;5029909;28;20214;-70
2021/04/16 01:33:01;;;;;;;3.63;2.30;;;;;;;3.10;100.00;98837.84;5027957;28;20264;-70
2021/04/16 01:35:31;;;;;;;3.23;2.23;;;;;;;3.07;100.00;98839.94;5029741;28;20222;-70
2021/04/16 01:37:57;;;;;;;3.57;2.07;;;;;;;2.97;100.00;98836.44;5030268;28;20667;-70
2021/04/16 01:40:25;;;;;;;3.20;2.10;;;;;;;3.02;100.00;98832.44;5026279;28;20272;-70
2021/04/16 01:42:53;;;;;;;4.33;2.57;;;;;;;2.87;100.00;98828.50;5028546;28;20213;-69
2021/04/16 01:45:22;;;;;;;3.00;2.30;;;;;;;2.95;100.00;98835.72;5030202;28;20270;-69
2021/04/16 01:47:54;;;;;;;5.97;2.70;;;;;;;2.93;100.00;98835.88;5029560;28;20236;-69
2021/04/16 01:50:21;;;;;;;5.57;2.27;;;;;;;2.98;100.00;98830.19;5029886;28;20206;-69
2021/04/16 01:52:48;;;;;;;4.50;2.30;;;;;;;2.76;100.00;98828.59;5027265;28;20206;-70
2021/04/16 01:55:15;;;;;;;2.40;1.77;;;;;;;2.86;100.00;98829.47;5025905;28;20280;-70
2021/04/16 01:57:42;;;;;;;4.80;2.50;;;;;;;2.84;100.00;98822.66;5029327;28;20229;-69
2021/04/16 02:00:13;;;;;;;4.83;2.13;;;;;;;2.79;100.00;98827.50;5024394;28;20685;-69
2021/04/16 02:02:40;;;;;;;3.53;1.90;;;;;;;2.73;100.00;98823.56;5024894;28;20221;-69
2021/04/16 02:05:08;;;;;;;4.97;2.40;;;;;;;2.71;100.00;98816.78;5028651;28;20222;-71
2021/04/16 02:07:35;;;;;;;7.93;2.90;;;;;;;2.62;100.00;98822.81;5027501;28;20210;-70
2021/04/16 02:10:04;;;;;;;5.77;2.43;;;;;;;2.79;100.00;98817.78;5020475;28;20203;-70
2021/04/16 02:12:31;;;;;;;9.23;2.80;;;;;;;2.76;100.00;98818.06;5027316;28;20260;-70
2021/04/16 02:14:58;;;;;;;4.37;2.40;;;;;;;2.57;100.00;98812.69;5027648;28;20705;-70
2021/04/16 02:17:28;;;;;;;3.17;2.20;;;;;;;2.62;100.00;98820.19;5025258;28;20234;-69
2021/04/16 02:19:56;;;;;;;5.70;2.90;;;;;;;2.69;100.00;98816.91;5029279;28;20693;-69
2021/04/16 02:22:24;;;;;;;4.83;2.93;;;;;;;2.62;100.00;98813.13;5028228;28;20210;-70
2021/04/16 02:24:51;;;;;;;4.47;2.43;;;;;;;2.64;100.00;98803.28;5022848;28;20763;-69
2021/04/16 02:27:25;;;;;;;4.63;2.40;;;;;;;2.70;100.00;98805.38;5026359;28;20547;-69
2021/04/16 02:29:52;;;;;;;5.43;2.27;;;;;;;2.73;100.00;98814.81;5025825;28;20583;-70
2021/04/16 02:32:19;;;;;;;4.23;2.50;;;;;;;2.79;100.00;98809.88;5026032;28;20202;-70
2021/04/16 02:34:47;;;;;;;4.27;2.73;;;;;;;2.64;100.00;98808.56;5022729;28;20218;-70
2021/04/16 02:37:15;;;;;;;6.03;2.67;;;;;;;2.60;100.00;98803.69;5028764;28;20221;-71
2021/04/16 02:39:42;;;;;;;3.93;2.27;;;;;;;2.68;100.00;98809.97;5029872;28;20214;-70
2021/04/16 02:42:10;;;;;;;5.07;2.47;;;;;;;2.76;100.00;98807.50;5028641;28;20202;-70
2021/04/16 02:44:37;;;;;;;6.30;2.33;;;;;;;2.71;100.00;98804.44;5024482;28;20202;-70
2021/04/16 02:47:05;;;;;;;4.33;2.30;;;;;;;2.72;100.00;98800.84;5021202;28;20206;-70
2021/04/16 02:49:32;;;;;;;4.00;2.23;;;;;;;2.75;100.00;98807.63;5029785;28;20795;-70
2021/04/16 02:51:59;;;;;;;5.27;2.33;;;;;;;2.82;100.00;98801.69;5026418;28;20206;-70
2021/04/16 02:54:26;;;;;;;4.23;2.47;;;;;;;2.81;100.00;98810.59;5027113;28;20216;-69
2021/04/16 02:56:55;;;;;;;4.47;2.43;;;;;;;2.65;100.00;98812.03;5025934;28;20700;-70
2021/04/16 02:59:23;;;;;;;3.60;2.37;;;;;;;2.61;100.00;98808.84;5022321;28;20237;-70
2021/04/16 03:01:50;;;;;;;3.30;2.43;;;;;;;2.72;100.00;98806.09;5025233;28;20248;-69
2021/04/16 03:04:17;;;;;;;4.50;2.27;;;;;;;2.58;100.00;98798.53;5024706;28;20218;-70
2021/04/16 03:06:44;;;;;;;3.77;2.57;;;;;;;2.57;100.00;98812.69;5027542;28;20256;-69
2021/04/16 03:09:12;;;;;;;5.33;2.63;;;;;;;2.73;100.00;98809.56;5026805;28;20202;-70
2021/04/16 03:11:39;;;;;;;3.97;2.67;;;;;;;2.67;100.00;98803.03;5026644;28;20214;-71
2021/04/16 03:14:06;;;;;;;5.33;2.73;;;;;;;2.74;100.00;98798.06;5021126;28;20719;-69
2021/04/16 03:16:33;;;;;;;4.13;2.60;;;;;;;2.72;100.00;98799.97;5032024;28;20230;-71
2021/04/16 03:19:01;;;;;;;5.17;2.43;;;;;;;2.68;100.00;98798.56;5033225;28;20823;-70
2021/04/16 03:21:28;;;;;;;4.17;2.43;;;;;;;2.70;100.00;98794.84;5025101;28;20237;-70
2021/04/16 03:23:56;;;;;;;5.37;1.90;;;;;;;2.45;100.00;98786.56;5023378;28;20577;-70
2021/04/16 03:26:24;;;;;;;3.50;2.20;;;;;;;2.48;100.00;98791.56;5020249;28;20776;-70
2021/04/16 03:28:53;;;;;;;5.37;2.77;;;;;;;2.54;100.00;98791.88;5028774;28;20315;-68
2021/04/16 03:31:20;;;;;;;5.80;2.80;;;;;;;2.41;100.00;98791.25;5028360;28;21629;-68
2021/04/16 03:33:47;;;;;;;5.97;2.93;;;;;;;2.59;100.00;98791.50;5032438;28;20202;-68
2021/04/16 03:36:14;;;;;;;4.17;2.57;;;;;;;2.52;100.00;98790.31;5024777;28;20240;-68
2021/04/16 03:38:41;;;;;;;5.70;2.70;;;;;;;2.42;100.00;98787.66;5028680;28;20202;-68
2021/04/16 03:41:08;;;;;;;6.17;3.17;;;;;;;2.31;100.00;98787.75;5030518;28;20211;-69
2021/04/16 03:43:35;;;;;;;7.83;3.10;;;;;;;2.34;100.00;98791.91;5026615;28;20206;-68
2021/04/16 03:46:02;;;;;;;4.23;2.63;;;;;;;2.37;100.00;98786.38;5031027;28;20716;-68
2021/04/16 03:48:29;;;;;;;5.17;2.50;;;;;;;2.39;100.00;98782.63;5030420;28;20206;-68
2021/04/16 03:50:56;;;;;;;6.43;2.20;;;;;;;2.38;100.00;98794.16;5026669;28;20664;-68
2021/04/16 03:53:25;;;;;;;6.47;2.83;;;;;;;2.38;100.00;98796.78;5023876;28;20659;-68
2021/04/16 03:55:52;;;;;;;3.40;2.53;;;;;;;2.24;100.00;98797.13;5026958;28;20396;-68
2021/04/16 03:58:19;;;;;;;6.60;3.00;;;;;;;2.28;100.00;98805.59;5031928;28;20617;-68
2021/04/16 04:00:47;;;;;;;5.07;2.83;;;;;;;2.37;100.00;98803.03;5028398;28;20264;-68
2021/04/16 04:03:14;;;;;;;6.77;2.93;;;;;;;2.21;100.00;98797.41;5024935;28;20212;-68
2021/04/16 04:05:41;;;;;;;5.67;3.10;;;;;;;2.36;100.00;98801.34;5023646;28;20227;-68
2021/04/16 04:08:08;;;;;;;4.40;2.80;;;;;;;2.32;100.00;98801.72;5017790;28;20222;-69
2021/04/16 04:10:37;;;;;;;4.67;2.60;;;;;;;2.27;100.00;98798.66;5025611;28;20221;-68
2021/04/16 04:13:04;;;;;;;6.70;2.87;;;;;;;2.23;100.00;98808.63;5026138;28;20214;-68
2021/04/16 04:15:31;;;;;;;4.70;2.53;;;;;;;2.11;100.00;98799.13;5030836;28;20226;-69
2021/04/16 04:17:59;;;;;;;5.53;3.10;;;;;;;2.39;100.00;98798.44;5021001;28;20679;-69
2021/04/16 04:20:30;;;;;;;7.07;2.70;;;;;;;2.37;100.00;98802.19;5029587;28;20217;-68
2021/04/16 04:22:56;;;;;;;7.33;3.00;;;;;;;2.29;100.00;98807.28;5023936;28;20222;-68
2021/04/16 04:25:25;;;;;;;6.40;2.97;;;;;;;2.20;100.00;98803.59;5017394;28;20313;-69
2021/04/16 04:27:52;;;;;;;8.67;3.03;;;;;;;2.15;100.00;98807.59;5022416;28;20203;-69
2021/04/16 04:30:21;;;;;;;5.57;2.73;;;;;;;2.25;100.00;98801.41;5028163;28;20310;-69
2021/04/16 04:32:48;;;;;;;4.77;3.03;;;;;;;2.23;100.00;98798.09;5027951;28;20210;-69
2021/04/16 04:35:16;;;;;;;5.10;3.00;;;;;;;2.21;100.00;98794.75;5031764;28;20218;-71
2021/04/16 04:37:43;;;;;;;4.20;2.40;;;;;;;2.35;100.00;98798.84;5022716;28;20226;-68
2021/04/16 04:40:11;;;;;;;6.17;3.27;;;;;;;2.18;100.00;98802.91;5024810;28;20210;-69
2021/04/16 04:42:37;;;;;;;6.77;3.17;;;;;;;2.33;100.00;98804.25;5018371;28;20960;-67
2021/04/16 04:45:06;;;;;;;6.13;2.90;;;;;;;2.18;100.00;98810.81;5028019;28;20547;-68
2021/04/16 04:47:33;;;;;;;7.80;2.90;;;;;;;2.34;100.00;98807.72;5024539;28;20221;-73
2021/04/16 04:50:00;;;;;;;4.77;3.23;;;;;;;2.30;100.00;98812.38;5017786;28;20216;-74
2021/04/16 04:52:29;;;;;;;7.50;3.10;;;;;;;2.41;100.00;98807.06;5027223;28;20198;-71
2021/04/16 04:54:58;;;;;;;5.03;2.70;;;;;;;2.42;100.00;98813.16;5023047;28;20234;-71
2021/04/16 04:57:26;;;;;;;5.43;3.20;;;;;;;2.41;100.00;98814.97;5023468;28;20245;-68
2021/04/16 04:59:53;;;;;;;5.00;2.87;;;;;;;2.51;100.00;98813.22;5031375;28;20209;-69
2021/04/16 05:02:22;;;;;;;5.50;2.90;;;;;;;2.58;100.00;98809.09;5028128;28;20206;-72
2021/04/16 05:04:49;;;;;;;6.13;2.97;;;;;;;2.83;100.00;98808.63;5031068;28;20229;-70
2021/04/16 05:07:16;;;;;;;4.97;3.27;;;;;;;3.15;100.00;98806.63;5016790;28;20199;-70
2021/04/16 05:09:44;;;;;;;6.10;3.07;;;;;;;3.29;100.00;98808.91;5028361;28;20206;-69
2021/04/16 05:12:11;;;;;;;8.27;3.43;;;;;;;3.47;100.00;98815.19;5028804;28;20660;-68
2021/04/16 05:14:38;;;;;;;4.57;2.70;;;;;;;3.44;100.00;98807.53;5019430;28;20215;-69
2021/04/16 05:17:06;;;;;;;5.20;3.37;;;;;;;3.50;100.00;98814.06;5026752;28;20230;-69
2021/04/16 05:19:33;;;;;;;8.03;3.33;;;;;;;3.43;100.00;98811.16;5020962;28;20687;-70
2021/04/16 05:22:04;;;;;;;9.43;3.20;;;;;;;3.85;100.00;98812.56;5021621;28;20580;-70
2021/04/16 05:24:32;;;;;;;5.90;3.67;;;;;;;4.01;100.00;98807.53;5021359;28;20217;-70
2021/04/16 05:27:00;;;;;;;6.00;3.57;;;;;;;4.14;100.00;98807.25;5012622;28;20207;-69
2021/04/16 05:29:27;;;;;;;11.37;3.70;;;;;;;4.24;100.00;98811.53;5012196;28;20210;-72
2021/04/16 05:31:54;;;;;;;4.77;2.60;;;;;;;4.12;100.00;98809.19;5012213;28;20210;-71
2021/04/16 05:34:21;;;;;;;4.03;3.00;;;;;;;3.89;100.00;98811.31;5020238;28;20206;-75
2021/04/16 05:36:48;;;;;;;4.80;3.10;;;;;;;4.07;100.00;98819.34;5019254;28;20234;-69
2021/04/16 05:39:15;;;;;;;4.87;2.80;;;;;;;4.27;99.56;98816.53;5019353;28;20260;-69
2021/04/16 05:41:42;;;;;;;5.43;2.53;;;;;;;4.25;99.88;98815.00;5024835;28;20253;-69
2021/04/16 05:44:10;;;;;;;7.60;3.07;;;;;;;3.91;100.00;98816.44;5026230;28;20237;-68
2021/04/16 05:46:38;;;;;;;9.07;3.10;;;;;;;3.99;100.00;98816.56;5020455;28;20242;-69
2021/04/16 05:49:06;;;;;;;4.73;2.70;;;;;;;3.97;100.00;98815.88;5031025;28;20553;-69
2021/04/16 05:51:33;;;;;;;6.10;3.03;;;;;;;4.15;100.00;98822.94;5019595;28;20320;-68
2021/04/16 05:54:00;;;;;;;6.03;3.43;;;;;;;4.01;100.00;98827.84;5022287;28;20293;-68
2021/04/16 05:56:27;;;;;;;4.33;2.90;;;;;;;4.06;100.00;98823.78;5021099;28;20234;-69
2021/04/16 05:58:53;;;;;;;5.93;2.80;;;;;;;4.14;98.97;98831.00;5020812;28;20222;-69
2021/04/16 06:01:21;;;;;;;8.63;3.13;;;;;;;4.39;98.92;98830.41;5019060;28;20296;-69
2021/04/16 06:03:48;;;;;;;5.40;3.30;;;;;;;4.15;98.53;98832.66;5030103;28;20568;-69
2021/04/16 06:06:15;;;;;;;5.03;3.17;;;;;;;3.92;100.00;98826.03;5026298;28;20246;-70
2021/04/16 06:08:43;;;;;;;6.13;3.10;;;;;;;4.24;100.00;98834.47;5029103;28;20684;-68
2021/04/16 06:11:10;;;;;;;4.33;2.80;;;;;;;4.47;98.07;98836.66;5029838;28;20217;-69
2021/04/16 06:13:37;;;;;;;5.07;2.93;;;;;;;4.66;98.68;98836.59;5024617;28;20208;-69
2021/04/16 06:16:05;;;;;;;5.80;3.00;;;;;;;4.78;97.70;98832.78;5027811;28;20234;-73
2021/04/16 06:18:33;;;;;;;4.10;2.90;;;;;;;4.68;98.04;98828.53;5022138;28;20249;-69
2021/04/16 06:21:00;;;;;;;5.17;2.60;;;;;;;4.59;100.00;98829.41;5030066;28;20228;-70
2021/04/16 06:23:26;;;;;;;3.43;2.87;;;;;;;4.55;100.00;98830.66;5028850;28;20260;-70
2021/04/16 06:25:53;;;;;;;5.07;2.87;;;;;;;4.94;98.08;98834.84;5028679;28;20234;-69
2021/04/16 06:28:20;;;;;;;5.97;3.00;;;;;;;5.09;98.18;98825.44;5029805;28;20198;-70
2021/04/16 06:30:47;;;;;;;5.17;3.13;;;;;;;5.06;97.76;98828.38;5022975;28;20206;-77
2021/04/16 06:33:19;;;;;;;4.47;2.70;;;;;;;5.33;97.64;98829.19;5037323;28;20245;-78
2021/04/16 06:35:50;;;;;;;8.43;2.87;;;;;;;5.67;94.58;98821.44;5026800;28;20231;-71
2021/04/16 06:38:20;;;;;;;4.33;2.83;;;;;;;5.78;91.43;98827.38;5028184;28;20601;-70
2021/04/16 06:40:48;;;;;;;5.17;2.83;;;;;;;5.39;96.34;98818.00;5024682;28;20573;-70
2021/04/16 06:43:16;;;;;;;5.17;3.17;;;;;;;6.24;90.78;98821.84;5029055;28;20210;-70
2021/04/16 06:45:43;;;;;;;5.90;3.10;;;;;;;5.72;94.25;98824.47;5032690;28;20230;-70
2021/04/16 06:48:11;;;;;;;6.43;3.60;;;;;;;5.51;95.91;98821.28;5027124;28;20206;-70
2021/04/16 06:50:40;;;;;;;5.27;3.00;;;;;;;5.59;98.42;98821.38;5023245;28;20207;-68
2021/04/16 06:53:14;;;;;;;6.87;3.17;;;;;;;5.62;97.49;98819.25;5025666;28;20206;-70
2021/04/16 06:55:54;;;;;;;4.90;2.93;;;;;;;5.68;98.07;98826.59;5016700;28;20703;-70
2021/04/16 06:58:25;;;;;;;6.13;3.93;;;;;;;5.31;100.00;98817.09;5023404;28;20222;-71
2021/04/16 07:01:04;;;;;;;6.80;4.37;;;;;;;5.63;100.00;98818.28;5021556;28;20577;-70
2021/04/16 07:03:34;;;;;;;6.27;4.33;;;;;;;5.76;100.00;98824.06;5023902;28;20213;-70
2021/04/16 07:06:05;;;;;;;6.47;3.87;;;;;;;5.51;100.00;98822.13;5017980;28;20231;-69
2021/04/16 07:08:35;;;;;;;7.73;3.83;;;;;;;6.15;98.10;98821.94;5017439;28;20214;-70
2021/04/16 07:11:04;;;;;;;8.63;4.90;;;;;;;5.35;100.00;98819.31;5019561;28;20210;-70
2021/04/16 07:13:34;;;;;;;7.63;4.73;;;;;;;4.98;100.00;98826.47;5023376;28;20606;-70
2021/04/16 07:16:01;;;;;;;8.93;5.17;;;;;;;5.34;100.00;98822.09;5020200;28;20703;-69
2021/04/16 07:18:34;;;;;;;7.17;4.40;;;;;;;5.43;100.00;98832.63;5017972;28;20210;-69
2021/04/16 07:21:01;;;;;;;5.43;3.80;;;;;;;5.66;100.00;98825.94;5026228;28;20825;-69
2021/04/16 07:23:28;;;;;;;4.63;3.97;;;;;;;5.54;100.00;98824.47;5019333;28;20213;-69
2021/04/16 07:26:09;;;;;;;5.27;3.97;;;;;;;5.68;100.00;98825.78;5033336;28;20230;-70
2021/04/16 07:28:48;;;;;;;6.77;3.80;;;;;;;5.91;100.00;98832.31;5020948;28;20204;-70
2021/04/16 07:31:42;;;;;;;7.20;3.90;;;;;;;5.58;100.00;98831.13;5025996;28;20212;-70
2021/04/16 07:34:17;;;;;;;5.67;3.73;;;;;;;6.47;98.07;98823.00;5020458;28;20217;-72
2021/04/16 07:36:44;;;;;;;6.67;4.30;;;;;;;7.07;94.37;98819.38;5029772;28;20313;-72
2021/04/16 07:39:25;;;;;;;5.40;3.47;;;;;;;6.94;93.11;98818.13;5021448;28;20219;-70
2021/04/16 07:41:55;;;;;;;8.33;3.37;;;;;;;6.81;91.44;98825.72;5021428;28;20292;-70
2021/04/16 07:44:25;;;;;;;6.93;3.80;;;;;;;6.58;91.68;98820.09;5029584;28;20210;-71
2021/04/16 07:46:53;;;;;;;5.47;3.40;;;;;;;7.21;90.36;98815.28;5028153;28;20201;-73
2021/04/16 07:49:53;;;;;;;5.97;2.83;;;;;;;6.50;92.75;98813.91;5026169;28;20203;-72
2021/04/16 07:52:27;;;;;;;4.30;3.20;;;;;;;6.68;95.43;98819.97;5022847;28;20242;-69
2021/04/16 07:55:22;;;;;;;5.27;3.50;;;;;;;6.73;90.28;98823.84;5029847;28;20254;-74
2021/04/16 07:58:05;;;;;;;4.40;3.03;;;;;;;7.12;88.70;98830.34;5021190;28;20235;-70
2021/04/16 08:00:36;;;;;;;4.93;3.10;;;;;;;6.64;91.64;98821.28;5022814;28;20225;-70
2021/04/16 08:03:10;;;;;;;4.83;3.20;;;;;;;7.07;87.18;98830.00;5025846;28;20240;-69
2021/04/16 08:05:40;;;;;;;4.27;3.30;;;;;;;6.24;94.52;98821.84;5017622;28;20235;-70
2021/04/16 08:08:13;;;;;;;6.97;3.70;;;;;;;7.20;90.82;98825.06;5030736;28;20204;-70
2021/04/16 08:10:40;;;;;;;4.77;3.40;;;;;;;7.26;88.51;98827.06;5022314;28;20315;-70
2021/04/16 08:13:13;;;;;;;5.73;3.80;;;;;;;7.47;86.27;98824.81;5029529;28;20253;-69
2021/04/16 08:15:41;;;;;;;8.40;3.10;;;;;;;7.63;82.93;98839.97;5028329;28;20674;-71
2021/04/16 08:18:10;;;;;;;5.23;3.43;;;;;;;6.64;91.19;98823.94;5027204;28;20715;-71
2021/04/16 08:20:39;;;;;;;4.83;3.40;;;;;;;7.01;88.78;98830.63;5027567;28;20204;-71
2021/04/16 08:23:06;;;;;;;4.90;2.90;;;;;;;7.10;88.21;98832.31;5024482;28;20223;-69
2021/04/16 08:25:39;;;;;;;4.83;2.53;;;;;;;6.72;89.96;98834.59;5026276;28;20282;-70
2021/04/16 08:28:09;;;;;;;4.20;3.17;;;;;;;7.19;88.09;98839.34;5022815;28;20346;-70
2021/04/16 08:30:45;;;;;;;5.07;3.37;;;;;;;7.33;86.71;98841.38;5031043;28;20570;-69
2021/04/16 08:33:22;;;;;;;5.47;3.40;;;;;;;7.34;85.92;98847.50;5032561;28;20214;-68
2021/04/16 08:35:56;;;;;;;4.77;3.20;;;;;;;6.84;87.93;98841.28;5031059;28;20223;-69
2021/04/16 08:38:26;;;;;;;4.13;3.43;;;;;;;7.17;89.20;98832.53;5029001;28;20235;-69
2021/04/16 08:40:55;;;;;;;3.43;3.07;;;;;;;8.23;82.55;98847.56;5029210;28;20209;-70
2021/04/16 08:43:32;;;;;;;3.97;3.27;;;;;;;7.41;85.46;98846.72;5035955;28;20268;-70
2021/04/16 08:46:00;;;;;;;4.40;3.13;;;;;;;8.43;79.11;98843.56;5031160;28;20231;-70
2021/04/16 08:48:30;;;;;;;6.07;3.83;;;;;;;8.01;80.56;98848.19;5032019;28;20195;-68
2021/04/16 08:51:00;;;;;;;6.47;3.70;;;;;;;7.94;80.60;98851.66;5026002;28;20337;-71
2021/04/16 08:53:27;;;;;;;6.53;3.33;;;;;;;8.56;76.32;98851.91;5024786;28;20202;-71
2021/04/16 08:55:54;;;;;;;4.83;3.50;;;;;;;8.71;77.23;98841.38;5022871;28;20286;-71
2021/04/16 08:58:28;;;;;;;7.63;3.27;;;;;;;8.09;80.41;98839.41;5023732;28;20229;-77
2021/04/16 09:00:58;;;;;;;5.20;3.37;;;;;;;8.17;80.48;98845.53;5029954;28;20216;-70
2021/04/16 09:03:27;;;;;;;5.00;3.43;;;;;;;8.04;82.22;98831.09;5026918;28;20211;-69
2021/04/16 09:05:58;;;;;;;3.90;3.17;;;;;;;8.02;77.27;98839.22;5018103;28;20232;-70
2021/04/16 09:08:29;;;;;;;5.53;3.17;;;;;;;8.08;80.94;98838.56;5028252;28;20518;-69
2021/04/16 09:10:57;;;;;;;4.03;3.10;;;;;;;8.33;77.97;98840.25;5017846;28;20264;-69
2021/04/16 09:13:58;;;;;;;8.90;3.27;;;;;;;7.77;80.73;98834.03;5021874;28;20683;-70
2021/04/16 09:16:51;;;;;;;3.40;2.50;;;;;;;7.88;80.75;98834.56;5022335;28;20237;-70
2021/04/16 09:19:53;;;;;;;3.90;2.87;;;;;;;7.63;82.28;98834.66;5026152;28;20284;-71
2021/04/16 09:22:48;;;;;;;3.63;2.90;;;;;;;8.02;79.84;98831.25;5013383;28;20666;-69
2021/04/16 09:25:43;;;;;;;4.87;3.00;;;;;;;8.48;75.24;98845.75;5025099;28;20230;-69
2021/04/16 09:28:59;;;;;;;3.53;2.60;;;;;;;7.95;74.44;98838.22;5026851;28;20287;-68
2021/04/16 09:31:53;;;;;;;4.70;2.83;;;;;;;8.12;73.17;98837.22;5028903;28;20288;-69
2021/04/16 09:34:23;;;;;;;3.17;2.70;;;;;;;8.28;73.15;98837.25;5015990;28;20214;-69
2021/04/16 09:36:52;;;;;;;3.43;2.60;;;;;;;8.53;72.50;98846.09;5028802;28;20644;-70
2021/04/16 09:39:33;;;;;;;3.70;2.77;;;;;;;8.46;72.94;98840.59;5019171;28;20623;-70
2021/04/16 09:42:01;;;;;;;5.07;2.70;;;;;;;9.23;67.44;98851.41;5028278;28;20214;-69
2021/04/16 09:44:46;;;;;;;4.00;3.30;;;;;;;8.64;70.12;98840.41;5024269;28;20213;-69
2021/04/16 09:47:38;;;;;;;3.67;2.93;;;;;;;8.93;66.89;98838.84;5029917;28;20253;-68
2021/04/16 09:50:07;;;;;;;3.40;2.80;;;;;;;9.50;64.83;98850.13;5025920;28;20257;-69
2021/04/16 09:52:54;;;;;;;4.10;3.00;;;;;;;9.02;64.93;98848.47;5025484;28;20258;-69
2021/04/16 09:55:47;;;;;;;4.53;2.30;;;;;;;9.73;60.72;98849.19;5029190;28;20233;-69
2021/04/16 09:59:07;;;;;;;3.90;3.23;;;;;;;8.35;68.73;98845.41;5030479;28;20576;-69
2021/04/16 10:01:36;;;;;;;3.50;2.33;;;;;;;9.03;64.60;98842.16;5021690;28;20202;-68
2021/04/16 10:04:07;;;;;;;3.90;3.03;;;;;;;8.93;63.65;98849.50;5023254;28;20214;-69
2021/04/16 10:06:40;;;;;;;2.97;2.60;;;;;;;9.10;61.83;98844.97;5024825;28;20226;-68
2021/04/16 10:09:20;;;;;;;3.90;2.60;;;;;;;10.22;59.68;98847.06;5027798;28;20195;-68
2021/04/16 10:11:49;;;;;;;3.83;2.40;;;;;;;10.03;56.83;98851.00;5021193;28;20317;-69
2021/04/16 10:14:21;;;;;;;4.23;2.67;;;;;;;10.19;56.46;98850.09;5020583;28;20638;-70
2021/04/16 10:16:52;;;;;;;4.67;2.67;;;;;;;9.89;59.71;98842.94;5026596;28;20236;-69
2021/04/16 10:19:25;;;;;;;4.63;2.63;;;;;;;9.58;59.93;98836.75;5025740;28;20214;-69
2021/04/16 10:21:52;;;;;;;3.67;2.70;;;;;;;9.16;59.88;98839.78;5024166;28;20337;-69
2021/04/16 12:39:39;;;;;;;3.00;2.50;;;;;;;8.72;61.66;98813.81;5029405;28;20393;-69
2021/04/16 12:42:07;;;;;;;2.80;2.13;;;;;;;8.68;63.85;98801.84;5021623;28;20203;-70
2021/04/16 12:44:37;;;;;;;3.63;2.43;;;;;;;9.00;62.29;98804.38;5027969;28;20215;-69
2021/04/16 12:47:06;;;;;;;3.83;2.70;;;;;;;9.55;56.53;98810.47;5016035;28;20234;-69
2021/04/16 12:49:33;;;;;;;3.43;2.60;;;;;;;9.47;57.05;98808.69;5027619;28;20571;-69
2021/04/16 12:52:02;;;;;;;3.20;2.20;;;;;;;9.12;58.38;98809.16;5028521;28;20566;-70
2021/04/16 12:54:29;;;;;;;5.53;2.50;;;;;;;8.91;59.08;98800.94;5027954;28;20294;-69
2021/04/16 12:56:56;;;;;;;4.93;2.47;;;;;;;9.08;59.97;98797.19;5023003;28;20234;-69
2021/04/16 12:59:24;;;;;;;3.83;2.50;;;;;;;9.38;59.46;98796.41;5029745;28;20630;-70
2021/04/16 13:01:53;;;;;;;3.83;2.50;;;;;;;9.36;60.28;98801.09;5023743;28;20203;-70
2021/04/16 13:04:22;;;;;;;6.03;2.67;;;;;;;9.72;58.65;98799.56;5028845;28;20202;-69
2021/04/16 13:06:50;;;;;;;3.90;2.60;;;;;;;9.65;59.67;98792.44;5027963;28;20223;-69
2021/04/16 13:09:19;;;;;;;3.97;2.67;;;;;;;9.11;60.75;98788.03;5023230;28;20202;-69
2021/04/16 13:11:48;;;;;;;2.73;2.20;;;;;;;9.79;57.94;98797.00;5030896;28;20206;-69
2021/04/16 13:14:15;;;;;;;4.37;2.70;;;;;;;9.87;55.29;98797.78;5016384;28;20231;-72
2021/04/16 13:16:42;;;;;;;3.10;2.27;;;;;;;10.22;54.33;98795.56;5012188;28;20222;-71
2021/04/16 13:19:10;;;;;;;3.33;2.20;;;;;;;10.35;53.44;98792.09;5027849;28;20268;-70
2021/04/16 13:21:39;;;;;;;2.60;2.00;;;;;;;9.87;56.61;98788.94;5027758;28;20233;-70
2021/04/16 13:24:09;;;;;;;3.20;2.77;;;;;;;9.15;58.71;98786.69;5027240;28;20305;-70
2021/04/16 13:26:36;;;;;;;2.97;2.50;;;;;;;9.30;58.48;98780.47;5029261;28;20740;-70
2021/04/16 13:29:03;;;;;;;2.30;2.10;;;;;;;9.90;58.64;98775.28;5018060;28;20225;-68
2021/04/16 13:31:32;;;;;;;3.73;2.43;;;;;;;9.89;57.17;98774.44;5014382;28;20610;-68
2021/04/16 13:34:00;;;;;;;3.93;2.33;;;;;;;9.65;57.18;98774.59;5015471;28;20256;-68
2021/04/16 13:36:30;;;;;;;3.40;2.70;;;;;;;9.84;57.32;98776.00;5021638;28;20222;-68
2021/04/16 13:38:57;;;;;;;3.97;2.43;;;;;;;9.45;57.86;98772.56;5020981;28;20233;-68
2021/04/16 13:41:25;;;;;;;2.80;2.00;;;;;;;10.47;54.20;98771.13;5015343;28;20302;-68
2021/04/16 13:43:53;;;;;;;3.87;2.57;;;;;;;10.52;52.91;98766.09;5025851;28;20206;-69
2021/04/16 13:46:23;;;;;;;4.33;2.43;;;;;;;9.58;54.50;98773.66;5016641;28;20222;-69
2021/04/16 13:48:50;;;;;;;4.17;1.90;;;;;;;9.25;54.85;98761.53;5017439;28;20586;-70
2021/04/16 13:51:19;;;;;;;2.50;1.80;;;;;;;9.23;57.31;98760.03;5023436;28;20203;-69
2021/04/16 13:53:46;;;;;;;2.20;1.70;;;;;;;9.63;54.89;98757.97;5016162;28;20214;-69
2021/04/16 13:56:13;;;;;;;4.70;2.20;;;;;;;10.45;52.92;98751.81;5019575;28;20222;-69
2021/04/16 13:58:41;;;;;;;3.70;1.90;;;;;;;10.35;53.54;98753.91;5016730;28;20699;-70
2021/04/16 14:01:09;;;;;;;3.80;2.10;;;;;;;10.07;53.38;98766.16;5014432;28;20219;-70
2021/04/16 14:03:38;;;;;;;3.20;2.23;;;;;;;10.19;53.71;98749.56;5020267;28;20209;-70
2021/04/16 14:06:07;;;;;;;2.50;1.80;;;;;;;10.15;51.34;98764.25;5024776;28;20227;-70